Adak, AK

6:35 PM HADT on October 21, 2014 (GMT -0900)
Adak | Change Station
CLOSE
Current Station
Airport
Location: Adak,
Elevation: 13 ft
Nearby Weather Stations

Elev 13 ft 51.88 °N, 176.65 °W | Updated 19 minutes ago

Overcast
Overcast
45 °F
Feels Like 40 °F
N
8
Wind Variable Wind from NW

Today
High -- | Low -- °F
--% Chance of Precip.
Yesterday
High -- | Low -- °F
Precip. -- in
9:22 AM 7:39 PM
Waning Crescent, 3% visible
Pressure 30.20 in
Visibility 10.0 miles
Clouds Mostly Cloudy 3300 ft
Overcast 4100 ft
Windchill 40 °F
Dew Point 32 °F
Humidity 61%
Rainfall 0.20 in
Snow Depth Not available.
UV 0 out of 12
Pollen Not available.
Air Quality Not available.
Flu Activity Sporadic
METAR PADK 220316Z AUTO 31007KT 10SM BKN033 OVC041 07/00 A3020 RMK AO1

More Conditions Fewer Conditions

Pressure 30.20 in
Visibility 10.0 miles
Clouds Mostly Cloudy 3300 ft
Overcast 4100 ft
Windchill 40 °F
Dew Point 32 °F
Humidity 61%
Rainfall 0.20 in
Snow Depth Not available.
UV 0 out of 12
Pollen Not available.
Air Quality Not available.
Flu Activity Sporadic
METAR PADK 220316Z AUTO 31007KT 10SM BKN033 OVC041 07/00 A3020 RMK AO1

More Conditions Fewer Conditions

10-Day Weather Forecast

Almanac

Astronomy

Oct. 21, 2014 Rise Set
Actual Time 9:22 AM HADT 7:39 PM HADT
Civil Twilight 8:47 AM HADT 8:13 PM HADT
Nautical Twilight 8:08 AM HADT 8:52 PM HADT
Astronomical Twilight 7:29 AM HADT 9:31 PM HADT
Moon 7:06 AM HADT (10/21) 6:52 PM HADT (10/21)
Length of Visible Light 11h 26m
Length of Day
10h 17m
Tomorrow will be 3m 48s shorter.
Waning Crescent, 3% of the Moon is Illuminated
Today
Waning Crescent
Oct 23
New
Oct 30
First Quarter
Nov 6
Full
Nov 14
Last Quarter

Today's Extremes

State Highs State Lows

Community

WunderPhotos

Upload Photos

1,763,874 photos uploaded!

Nearby

Snow Depth

Station Depth Elevation
Rocky Point 2 in 500 ft
Port Graham 0 in 300 ft
Mcneil Canyon 1 in 1320 ft
MF Bradley River 0 in 2300 ft
Cooper Lake 0 in 1200 ft

Earthquake Activity

City Distance Mag. Time & Date
No recent earthquake activity has been reported nearby.
Minimum magnitude displayed is 2.5.

Coastal Water Temperatures

Place Temperature
No Stations Reporting

Nearby Weather Stations